Weather History for Mesquite, TX

Change the Weather History Date:

Thursday, June 27, 2013

  Actual Average (KDFW) Record (KDFW)
Temperature  
Mean Temperature 85 °F 83 °F  
Max Temperature 97 °F 94 °F 113 °F (1980)
Min Temperature 73 °F 73 °F 59 °F (1974)
Degree Days  
Heating Degree Days 0 0  
Month to date heating degree days 0  
Since 1 June heating degree days 0  
Since 1 July heating degree days 2284  
Cooling Degree Days 20 18  
Month to date cooling degree days 435  
Year to date cooling degree days 857  
Since 1 June cooling degree days 435  
Growing Degree Days 35 (Base 50)    
Moisture  
Dew Point 68 °F    
Average Humidity 58    
Maximum Humidity 82    
Minimum Humidity 30    
Precipitation  
Precipitation 0.00 in 0.10 in 2.82 in (1962)
Month to date precipitation 3.49  
Year to date precipitation 19.74  
Sea Level Pressure  
Sea Level Pressure 29.95 in    
Wind  
Wind Speed 6 mph (SSE)    
Max Wind Speed 14 mph    
Max Gust Speed 20 mph    
Visibility 10 miles    
Events      
T = Trace of Precipitation, MM = Missing Value Source: NWS Daily Summary

Daily Weather History Graph

Daily Weather History Graph

Search for Another Location

Airport:

Trip Planner

Search our weather history database for the weather conditions in past years. The results will help you decide how hot, cold, wet, or windy it might be!

Date:

Astronomy

Jun. 27, 2013 Rise Set
Actual Time 6:20 AM CDT 8:38 PM CDT
Civil Twilight 5:51 AM CDT 9:06 PM CDT
Nautical Twilight 5:16 AM CDT 9:41 PM CDT
Astronomical Twilight 4:38 AM CDT 10:19 PM CDT
Moon 11:54 PM CDT (6/27) 11:06 AM CDT (6/27)
Length of Visible Light 15h 14m
Length of Day
14h 17m
Waning Gibbous, 76% of the Moon is Illuminated
Jun 27
Waning Gibbous
Jun 29
Last Quarter
Jul 8
New
Jul 15
First Quarter
Jul 22
Full

Hourly Weather History & Observations

Time (CDT) Temp. Heat Index Dew Point Humidity Pressure Visibility Wind Dir Wind Speed Gust Speed Precip Events Conditions
12:15 AM 77.9 °F - 67.5 °F 70% 29.92 in 10.0 mi SSE 3.5 mph - N/A   Clear
12:35 AM 79.0 °F - 66.6 °F 66% 29.92 in 10.0 mi SSE 4.6 mph - N/A   Clear
1:15 AM 77.0 °F - 66.7 °F 70% 29.91 in 10.0 mi SSE 5.8 mph - N/A   Clear
1:35 AM 76.5 °F - 66.9 °F 72% 29.91 in 10.0 mi SSE 5.8 mph - N/A   Clear
1:55 AM 76.5 °F - 66.9 °F 72% 29.92 in 10.0 mi SE 6.9 mph - N/A   Clear
2:15 AM 76.3 °F - 67.1 °F 73% 29.92 in 10.0 mi SSE 6.9 mph - N/A   Clear
2:35 AM 77.2 °F - 66.4 °F 69% 29.92 in 10.0 mi SSE 6.9 mph - N/A   Clear
2:55 AM 76.3 °F - 66.9 °F 73% 29.93 in 10.0 mi SE 4.6 mph - N/A   Clear
3:15 AM 75.0 °F - 67.1 °F 76% 29.93 in 10.0 mi SSE 4.6 mph - N/A   Clear
3:35 AM 75.4 °F - 66.7 °F 74% 29.93 in 10.0 mi SSE 6.9 mph - N/A   Clear
3:55 AM 76.8 °F - 66.7 °F 71% 29.93 in 10.0 mi SSE 6.9 mph - N/A   Clear
4:15 AM 77.0 °F - 67.1 °F 71% 29.94 in 10.0 mi South 6.9 mph - N/A   Clear
4:35 AM 76.5 °F - 67.1 °F 73% 29.94 in 10.0 mi SSE 6.9 mph - N/A   Clear
4:55 AM 75.9 °F - 67.1 °F 74% 29.95 in 10.0 mi SSE 6.9 mph - N/A   Clear
5:15 AM 75.2 °F - 67.5 °F 77% 29.96 in 10.0 mi SSE 4.6 mph - N/A   Clear
5:35 AM 74.7 °F - 67.6 °F 79% 29.96 in 10.0 mi SSE 4.6 mph - N/A   Clear
5:55 AM 74.1 °F - 67.6 °F 80% 29.97 in 10.0 mi SSE 4.6 mph - N/A   Clear
6:15 AM 73.6 °F - 67.6 °F 82% 29.98 in 10.0 mi SSE 5.8 mph - N/A   Clear
6:35 AM 73.8 °F - 67.8 °F 82% 29.99 in 10.0 mi SSE 6.9 mph - N/A   Clear
6:55 AM 74.7 °F - 68.2 °F 80% 29.99 in 10.0 mi SSE 6.9 mph - N/A   Clear
7:15 AM 75.7 °F - 68.7 °F 79% 30.01 in 10.0 mi South 4.6 mph - N/A   Clear
7:35 AM 76.8 °F - 69.1 °F 77% 30.02 in 10.0 mi South 4.6 mph - N/A   Clear
7:55 AM 78.3 °F - 69.8 °F 75% 30.02 in 10.0 mi South 8.1 mph - N/A   Clear
8:15 AM 79.5 °F - 70.2 °F 73% 30.03 in 10.0 mi South 9.2 mph - N/A   Clear
8:35 AM 80.6 °F 84.1 °F 70.5 °F 71% 30.03 in 7.0 mi South 12.7 mph - N/A   Clear
8:55 AM 82.0 °F 86.1 °F 70.7 °F 68% 30.03 in 10.0 mi South 12.7 mph - N/A   Clear
9:15 AM 82.6 °F 86.8 °F 70.5 °F 67% 30.04 in 7.0 mi SSW 11.5 mph - N/A   Clear
9:35 AM 83.7 °F 88.3 °F 70.7 °F 65% 30.03 in 10.0 mi South 11.5 mph - N/A   Clear
9:55 AM 84.2 °F 88.7 °F 70.2 °F 63% 30.03 in 10.0 mi South 13.8 mph 19.6 mph N/A   Clear
10:15 AM 85.1 °F 89.4 °F 70.0 °F 60% 30.02 in 10.0 mi South 13.8 mph 17.3 mph N/A   Clear
10:35 AM 85.8 °F 90.4 °F 69.8 °F 59% 30.02 in 7.0 mi SW 11.5 mph 17.3 mph N/A   Clear
10:55 AM 86.9 °F 91.7 °F 69.8 °F 57% 30.01 in 10.0 mi SSW 10.4 mph - N/A   Clear
11:15 AM 88.0 °F 93.4 °F 70.3 °F 56% 30.01 in 10.0 mi South 8.1 mph 18.4 mph N/A   Clear
11:35 AM 88.5 °F 93.1 °F 69.6 °F 53% 30.01 in 10.0 mi SSW 9.2 mph - N/A   Clear
11:55 AM 89.1 °F 94.1 °F 69.8 °F 53% 30.01 in 10.0 mi SSW 8.1 mph - N/A   Clear
12:15 PM 90.1 °F 95.3 °F 69.8 °F 51% 30.00 in 10.0 mi SSW 5.8 mph - N/A   Clear
12:35 PM 90.9 °F 96.2 °F 69.6 °F 50% 30.00 in 10.0 mi SW 9.2 mph - N/A   Clear
12:55 PM 92.1 °F 98.3 °F 70.2 °F 49% 29.99 in 10.0 mi South 8.1 mph - N/A   Clear
1:15 PM 92.8 °F 97.6 °F 68.7 °F 45% 29.99 in 10.0 mi SSW 8.1 mph - N/A   Clear
1:35 PM 93.0 °F 97.9 °F 68.5 °F 45% 29.98 in 10.0 mi SW 6.9 mph - N/A   Clear
1:55 PM 94.1 °F 98.9 °F 68.7 °F 43% 29.98 in 10.0 mi South 9.2 mph - N/A   Clear
2:15 PM 94.8 °F 99.8 °F 68.4 °F 42% 29.96 in 10.0 mi SSE 4.6 mph - N/A   Clear
2:35 PM 95.2 °F 99.3 °F 67.6 °F 40% 29.96 in 10.0 mi South 6.9 mph - N/A   Clear
2:55 PM 95.5 °F 100.0 °F 67.5 °F 40% 29.95 in 10.0 mi South 5.8 mph - N/A   Clear
3:15 PM 96.6 °F 100.3 °F 66.7 °F 37% 29.95 in 10.0 mi SSW 3.5 mph - N/A   Clear
3:35 PM 96.4 °F 100.6 °F 67.1 °F 38% 29.94 in 10.0 mi South 4.6 mph - N/A   Clear
3:55 PM 97.2 °F 101.9 °F 67.3 °F 38% 29.94 in 10.0 mi ESE 5.8 mph - N/A   Clear
4:15 PM 97.3 °F 100.5 °F 65.3 °F 35% 29.94 in 10.0 mi SSE 3.5 mph - N/A   Clear
4:35 PM 97.2 °F 100.7 °F 66.4 °F 36% 29.93 in 10.0 mi SE 6.9 mph - N/A   Clear
4:55 PM 97.3 °F 100.0 °F 64.6 °F 34% 29.92 in 10.0 mi SSE 6.9 mph - N/A   Clear
5:15 PM 97.2 °F 98.6 °F 63.0 °F 32% 29.92 in 10.0 mi ESE 3.5 mph - N/A   Clear
5:35 PM 97.2 °F 98.1 °F 62.1 °F 31% 29.91 in 10.0 mi Calm Calm - N/A   Clear
5:55 PM 97.0 °F 97.4 °F 61.2 °F 30% 29.91 in 10.0 mi SE 4.6 mph - N/A   Clear
6:15 PM 97.2 °F 97.6 °F 61.3 °F 30% 29.91 in 10.0 mi SE 3.5 mph - N/A   Clear
6:35 PM 96.1 °F 97.3 °F 62.6 °F 33% 29.90 in 10.0 mi Calm Calm - N/A   Clear
6:55 PM 95.5 °F 98.9 °F 66.2 °F 38% 29.90 in 10.0 mi Calm Calm - N/A   Clear
7:15 PM 95.4 °F 98.6 °F 65.8 °F 38% 29.90 in 10.0 mi SSE 3.5 mph - N/A   Clear
7:35 PM 93.9 °F 101.5 °F 71.8 °F 48% 29.90 in 10.0 mi Calm Calm - N/A   Clear
7:55 PM 92.1 °F 103.0 °F 74.8 °F 57% 29.89 in 10.0 mi Calm Calm - N/A   Clear
8:15 PM 88.5 °F 98.3 °F 75.0 °F 64% 29.88 in 10.0 mi NE 5.8 mph - N/A   Clear
8:35 PM 88.7 °F 92.6 °F 68.4 °F 51% 29.87 in 10.0 mi SSE 5.8 mph - N/A   Clear
8:55 PM 86.9 °F 89.6 °F 66.6 °F 51% 29.88 in 10.0 mi SE 4.6 mph - N/A   Clear
9:15 PM 86.0 °F 88.5 °F 66.6 °F 52% 29.89 in 10.0 mi SE 3.5 mph - N/A   Clear
9:35 PM 84.9 °F 87.4 °F 66.7 °F 54% 29.91 in 10.0 mi Calm Calm - N/A   Clear
9:55 PM 84.9 °F 87.1 °F 65.8 °F 53% 29.92 in 10.0 mi SE 3.5 mph - N/A   Clear
10:15 PM 82.8 °F 85.1 °F 66.6 °F 58% 29.93 in 10.0 mi SE 3.5 mph - N/A   Clear
10:35 PM 81.7 °F 84.0 °F 66.6 °F 60% 29.95 in 10.0 mi Calm Calm - N/A   Clear
10:55 PM 82.4 °F 84.2 °F 65.1 °F 56% 29.96 in 10.0 mi Calm Calm - N/A   Clear
11:15 PM 81.9 °F 83.4 °F 64.4 °F 55% 29.96 in 10.0 mi Calm Calm - N/A   Clear
11:35 PM 80.4 °F 82.3 °F 65.5 °F 60% 29.96 in 10.0 mi Calm Calm - N/A   Clear
11:55 PM 79.7 °F - 65.1 °F 61% 29.96 in 10.0 mi Calm Calm - N/A   Clear